Time;durP1;ratioP1;P1;durP2;ratioP2;P2;SDS_P1;SDS_P2;PMS_P1;PMS_P2;Temp;Humidity;BMP_temperature;BMP_pressure;BME280_temperature;BME280_humidity;BME280_pressure;Samples;Min_cycle;Max_cycle;Signal;HPM_P1;HPM_P2
2021/12/26 00:01:18;;;;;;;3.40;0.60;;;;;;;;;;5088391;28;20478;-56
2021/12/26 00:03:44;;;;;;;3.22;0.80;;;;;;;;;;5088396;28;20027;-56
2021/12/26 00:06:12;;;;;;;1.33;1.05;;;;;;;;;;5089548;28;20036;-55
2021/12/26 00:08:38;;;;;;;0.73;0.50;;;;;;;;;;5088244;28;20093;-56
2021/12/26 00:11:03;;;;;;;2.65;0.93;;;;;;;;;;5088276;28;20067;-55
2021/12/26 00:13:30;;;;;;;1.90;0.70;;;;;;;;;;5089647;28;20044;-54
2021/12/26 00:15:55;;;;;;;1.20;0.70;;;;;;;;;;5088416;28;20059;-56
2021/12/26 00:18:21;;;;;;;1.02;0.63;;;;;;;;;;5088573;28;20036;-54
2021/12/26 00:20:47;;;;;;;3.00;0.65;;;;;;;;;;5070086;28;20684;-54
2021/12/26 00:23:13;;;;;;;0.85;0.52;;;;;;;;;;5088433;28;20020;-54
2021/12/26 00:25:38;;;;;;;2.53;1.08;;;;;;;;;;5083344;28;20417;-55
2021/12/26 00:28:04;;;;;;;0.52;0.47;;;;;;;;;;5081739;28;20031;-55
2021/12/26 00:30:29;;;;;;;1.38;0.55;;;;;;;;;;5087729;28;20040;-55
2021/12/26 00:32:54;;;;;;;1.55;0.60;;;;;;;;;;5092625;28;20032;-55
2021/12/26 00:35:21;;;;;;;1.38;0.60;;;;;;;;;;5096071;28;20536;-56
2021/12/26 00:37:47;;;;;;;1.90;0.80;;;;;;;;;;5097318;28;20028;-55
2021/12/26 00:40:14;;;;;;;0.50;0.45;;;;;;;;;;5094535;28;20043;-55
2021/12/26 00:42:40;;;;;;;0.65;0.55;;;;;;;;;;5088324;28;20388;-55
2021/12/26 00:45:06;;;;;;;1.42;0.82;;;;;;;;;;5087865;28;20032;-55
2021/12/26 00:47:32;;;;;;;1.42;0.80;;;;;;;;;;5088657;28;20020;-54
2021/12/26 00:49:57;;;;;;;0.80;0.57;;;;;;;;;;5091393;28;20595;-55
2021/12/26 00:52:22;;;;;;;0.68;0.55;;;;;;;;;;5090379;28;20047;-54
2021/12/26 00:54:48;;;;;;;3.00;0.93;;;;;;;;;;5090688;28;20039;-55
2021/12/26 00:57:13;;;;;;;1.30;0.65;;;;;;;;;;5090191;28;20039;-55
2021/12/26 00:59:38;;;;;;;1.15;0.80;;;;;;;;;;5090953;28;20032;-56
2021/12/26 01:02:04;;;;;;;1.88;0.73;;;;;;;;;;5087072;28;20069;-55
2021/12/26 01:04:29;;;;;;;0.77;0.63;;;;;;;;;;5090577;28;20042;-56
2021/12/26 01:06:55;;;;;;;3.35;1.15;;;;;;;;;;5093447;28;20035;-56
2021/12/26 01:09:25;;;;;;;0.93;0.47;;;;;;;;;;5093093;28;20033;-55
2021/12/26 01:11:54;;;;;;;0.90;0.60;;;;;;;;;;5093644;28;20043;-54
2021/12/26 01:14:26;;;;;;;1.20;0.57;;;;;;;;;;5093248;28;20024;-57
2021/12/26 01:17:01;;;;;;;3.50;0.82;;;;;;;;;;5093749;28;20062;-57
2021/12/26 01:19:32;;;;;;;1.45;0.80;;;;;;;;;;5071279;28;20059;-55
2021/12/26 01:21:58;;;;;;;2.15;0.60;;;;;;;;;;5073038;28;20036;-54
2021/12/26 01:24:23;;;;;;;0.88;0.60;;;;;;;;;;5072590;28;20082;-55
2021/12/26 01:26:48;;;;;;;1.40;0.57;;;;;;;;;;5088575;28;20046;-55
2021/12/26 01:29:13;;;;;;;1.08;0.77;;;;;;;;;;5073028;28;20504;-55
2021/12/26 01:31:39;;;;;;;1.20;0.50;;;;;;;;;;5073874;28;20064;-55
2021/12/26 01:34:05;;;;;;;0.88;0.70;;;;;;;;;;5072299;28;20029;-56
2021/12/26 01:36:31;;;;;;;0.95;0.80;;;;;;;;;;5072951;28;20060;-55
2021/12/26 01:38:58;;;;;;;1.00;0.75;;;;;;;;;;5072598;28;20036;-56
2021/12/26 01:41:24;;;;;;;0.82;0.55;;;;;;;;;;5072731;28;20071;-54
2021/12/26 01:43:53;;;;;;;1.70;0.70;;;;;;;;;;5073033;28;20508;-55
2021/12/26 01:46:18;;;;;;;0.85;0.63;;;;;;;;;;5072670;28;20044;-55
2021/12/26 01:48:43;;;;;;;2.63;0.60;;;;;;;;;;5072364;28;20496;-55
2021/12/26 01:51:09;;;;;;;1.15;0.55;;;;;;;;;;5072365;28;20047;-56
2021/12/26 01:53:39;;;;;;;1.65;0.60;;;;;;;;;;5072295;28;20508;-55
2021/12/26 01:56:09;;;;;;;0.68;0.40;;;;;;;;;;5072389;28;20036;-55
2021/12/26 01:58:36;;;;;;;1.85;0.70;;;;;;;;;;5071931;28;20043;-55
2021/12/26 02:01:19;;;;;;;0.95;0.60;;;;;;;;;;5072291;28;20082;-54
2021/12/26 02:03:44;;;;;;;0.90;0.60;;;;;;;;;;5071990;28;20097;-53
2021/12/26 02:06:10;;;;;;;2.97;0.70;;;;;;;;;;5072155;28;20437;-54
2021/12/26 02:08:35;;;;;;;0.93;0.45;;;;;;;;;;5072261;28;20048;-55
2021/12/26 02:11:02;;;;;;;1.38;0.70;;;;;;;;;;5072526;28;20075;-54
2021/12/26 02:13:33;;;;;;;2.92;0.90;;;;;;;;;;5071663;28;20024;-54
2021/12/26 02:15:58;;;;;;;2.65;0.90;;;;;;;;;;5072242;28;20025;-55
2021/12/26 02:18:24;;;;;;;2.65;0.65;;;;;;;;;;5074959;28;20082;-55
2021/12/26 02:23:30;;;;;;;3.10;0.73;;;;;;;;;;5091916;28;20446;-55
2021/12/26 02:28:40;;;;;;;1.63;0.88;;;;;;;;;;5091978;28;20123;-56
2021/12/26 02:31:05;;;;;;;1.38;0.60;;;;;;;;;;5091917;28;20055;-55
2021/12/26 02:33:31;;;;;;;1.25;0.60;;;;;;;;;;5091505;28;20032;-54
2021/12/26 02:35:56;;;;;;;1.40;0.70;;;;;;;;;;5092237;28;20043;-56
2021/12/26 02:38:22;;;;;;;0.57;0.45;;;;;;;;;;5091845;28;20054;-55
2021/12/26 02:40:48;;;;;;;1.33;0.63;;;;;;;;;;5092208;28;20066;-56
2021/12/26 02:43:16;;;;;;;1.02;0.63;;;;;;;;;;5091868;28;20032;-56
2021/12/26 02:45:41;;;;;;;1.25;0.60;;;;;;;;;;5091835;28;20496;-56
2021/12/26 02:48:07;;;;;;;2.15;0.65;;;;;;;;;;5091847;28;20047;-56
2021/12/26 02:50:33;;;;;;;2.15;0.60;;;;;;;;;;5091782;28;20112;-56
2021/12/26 02:52:59;;;;;;;1.17;0.60;;;;;;;;;;5091461;28;20472;-55
2021/12/26 02:55:24;;;;;;;1.55;0.70;;;;;;;;;;5091449;28;20120;-54
2021/12/26 02:57:51;;;;;;;2.30;1.17;;;;;;;;;;5092053;28;20055;-55
2021/12/26 03:00:18;;;;;;;1.92;0.93;;;;;;;;;;5091688;28;20435;-55
2021/12/26 03:02:47;;;;;;;0.80;0.60;;;;;;;;;;5091789;28;20028;-53
2021/12/26 03:05:13;;;;;;;1.70;0.60;;;;;;;;;;5092017;28;20120;-55
2021/12/26 03:07:38;;;;;;;0.88;0.50;;;;;;;;;;5092774;28;20052;-55
2021/12/26 03:10:05;;;;;;;1.77;0.80;;;;;;;;;;5096049;28;20036;-53
2021/12/26 03:12:32;;;;;;;1.15;0.80;;;;;;;;;;5095959;28;20524;-55
2021/12/26 03:14:57;;;;;;;2.38;0.70;;;;;;;;;;5095644;28;20446;-55
2021/12/26 03:17:23;;;;;;;1.30;0.60;;;;;;;;;;5095475;28;20049;-57
2021/12/26 03:19:48;;;;;;;1.08;0.65;;;;;;;;;;5096055;28;20055;-54
2021/12/26 03:22:15;;;;;;;1.58;0.75;;;;;;;;;;5095585;28;20059;-54
2021/12/26 03:24:42;;;;;;;1.30;0.90;;;;;;;;;;5095258;28;20391;-54
2021/12/26 03:27:07;;;;;;;1.20;0.60;;;;;;;;;;5095470;28;20047;-55
2021/12/26 03:29:33;;;;;;;1.77;0.80;;;;;;;;;;5095636;28;20024;-55
2021/12/26 03:31:58;;;;;;;1.95;0.70;;;;;;;;;;5095436;28;20476;-55
2021/12/26 03:34:24;;;;;;;1.25;0.55;;;;;;;;;;5095078;28;20039;-56
2021/12/26 03:36:52;;;;;;;0.80;0.60;;;;;;;;;;5095444;28;20036;-54
2021/12/26 03:39:18;;;;;;;2.08;0.80;;;;;;;;;;5095135;28;20047;-55
2021/12/26 03:41:43;;;;;;;2.88;0.70;;;;;;;;;;5094930;28;20492;-54
2021/12/26 03:44:08;;;;;;;1.00;0.65;;;;;;;;;;5095359;28;20028;-55
2021/12/26 03:46:34;;;;;;;1.05;0.60;;;;;;;;;;5094972;28;20066;-55
2021/12/26 03:49:04;;;;;;;2.40;0.68;;;;;;;;;;5094773;28;20176;-55
2021/12/26 03:51:29;;;;;;;1.95;0.77;;;;;;;;;;5094870;28;20518;-55
2021/12/26 03:53:54;;;;;;;2.03;0.70;;;;;;;;;;5094748;28;20028;-55
2021/12/26 03:56:19;;;;;;;1.05;0.65;;;;;;;;;;5092961;28;20453;-56
2021/12/26 03:58:45;;;;;;;0.82;0.60;;;;;;;;;;5095274;28;20071;-55
2021/12/26 04:01:10;;;;;;;1.30;0.70;;;;;;;;;;5094525;28;20491;-55
2021/12/26 04:03:35;;;;;;;1.48;0.70;;;;;;;;;;5094282;28;20064;-56
2021/12/26 04:06:03;;;;;;;1.38;0.70;;;;;;;;;;5094292;28;20028;-55
2021/12/26 04:08:28;;;;;;;3.10;0.60;;;;;;;;;;5085348;28;20028;-54
2021/12/26 04:10:53;;;;;;;0.82;0.65;;;;;;;;;;5074743;28;20067;-55
2021/12/26 04:13:18;;;;;;;1.40;0.80;;;;;;;;;;5074018;28;20033;-54
2021/12/26 04:15:44;;;;;;;2.67;0.50;;;;;;;;;;5080554;28;20169;-54
2021/12/26 04:18:09;;;;;;;1.13;0.55;;;;;;;;;;5093936;28;20032;-54
2021/12/26 04:20:35;;;;;;;1.73;1.13;;;;;;;;;;5092907;28;20500;-55
2021/12/26 04:23:02;;;;;;;1.60;0.80;;;;;;;;;;5094774;28;20100;-54
2021/12/26 04:25:27;;;;;;;0.88;0.60;;;;;;;;;;5093789;28;20085;-56
2021/12/26 04:27:54;;;;;;;1.10;0.80;;;;;;;;;;5093836;28;20036;-53
2021/12/26 04:30:20;;;;;;;1.17;0.93;;;;;;;;;;5093860;28;20407;-55
2021/12/26 04:32:46;;;;;;;0.63;0.60;;;;;;;;;;5094303;28;20025;-55
2021/12/26 04:35:11;;;;;;;0.85;0.55;;;;;;;;;;5093876;28;20077;-56
2021/12/26 04:37:36;;;;;;;1.42;0.70;;;;;;;;;;5094590;28;20028;-55
2021/12/26 04:40:07;;;;;;;2.13;0.82;;;;;;;;;;5093935;28;20492;-54
2021/12/26 04:42:32;;;;;;;1.25;0.70;;;;;;;;;;5092237;28;20055;-54
2021/12/26 04:44:57;;;;;;;1.38;0.63;;;;;;;;;;5094042;28;20456;-55
2021/12/26 04:47:22;;;;;;;1.38;0.82;;;;;;;;;;5093715;28;20039;-55
2021/12/26 04:49:48;;;;;;;2.05;1.13;;;;;;;;;;5093954;28;20020;-54
2021/12/26 04:52:13;;;;;;;1.55;0.90;;;;;;;;;;5092659;28;20039;-55
2021/12/26 04:54:39;;;;;;;1.27;0.77;;;;;;;;;;5093468;28;20024;-54
2021/12/26 04:57:05;;;;;;;1.52;1.05;;;;;;;;;;5092970;28;20031;-56
2021/12/26 04:59:30;;;;;;;1.45;0.80;;;;;;;;;;5092988;28;20119;-55
2021/12/26 05:01:55;;;;;;;0.90;0.77;;;;;;;;;;5084248;28;20162;-55
2021/12/26 05:04:21;;;;;;;1.00;0.90;;;;;;;;;;5092495;28;20036;-57
2021/12/26 05:06:47;;;;;;;3.95;1.02;;;;;;;;;;5092920;28;20047;-54
2021/12/26 05:09:14;;;;;;;2.67;0.68;;;;;;;;;;5092956;28;20085;-54
2021/12/26 05:11:39;;;;;;;1.02;0.73;;;;;;;;;;5093200;28;20062;-55
2021/12/26 05:14:04;;;;;;;1.50;0.68;;;;;;;;;;5093045;28;20036;-54
2021/12/26 05:16:29;;;;;;;2.08;0.70;;;;;;;;;;5092763;28;20024;-54
2021/12/26 05:18:55;;;;;;;1.13;0.60;;;;;;;;;;5092677;28;20059;-55
2021/12/26 05:21:20;;;;;;;1.67;0.80;;;;;;;;;;5093049;28;20101;-54
2021/12/26 05:23:45;;;;;;;1.60;0.90;;;;;;;;;;5092921;28;20058;-55
2021/12/26 05:26:10;;;;;;;1.45;0.85;;;;;;;;;;5093037;28;20067;-54
2021/12/26 05:28:36;;;;;;;1.75;0.60;;;;;;;;;;5092899;28;20028;-55
2021/12/26 05:31:01;;;;;;;1.65;0.68;;;;;;;;;;5092304;28;20040;-54
2021/12/26 05:33:26;;;;;;;1.33;0.70;;;;;;;;;;5092554;28;20032;-54
2021/12/26 05:35:51;;;;;;;1.73;0.90;;;;;;;;;;5076088;28;20052;-56
2021/12/26 05:38:17;;;;;;;2.47;0.80;;;;;;;;;;5093150;28;20027;-56
2021/12/26 05:40:42;;;;;;;2.28;1.00;;;;;;;;;;5093577;28;20032;-54
2021/12/26 05:43:07;;;;;;;2.05;1.13;;;;;;;;;;5092671;28;20028;-56
2021/12/26 05:45:32;;;;;;;1.48;1.00;;;;;;;;;;5092831;28;20085;-55
2021/12/26 05:47:58;;;;;;;0.47;0.45;;;;;;;;;;5092858;28;20028;-56
2021/12/26 05:50:23;;;;;;;1.48;0.60;;;;;;;;;;5092389;28;20119;-56
2021/12/26 05:52:48;;;;;;;1.25;0.88;;;;;;;;;;5093142;28;20023;-56
2021/12/26 05:55:13;;;;;;;1.52;0.50;;;;;;;;;;5093034;28;20034;-56
2021/12/26 05:57:39;;;;;;;1.42;0.80;;;;;;;;;;5092650;28;20058;-55
2021/12/26 06:00:09;;;;;;;2.70;0.80;;;;;;;;;;5074300;28;20103;-56
2021/12/26 06:02:34;;;;;;;0.98;0.68;;;;;;;;;;5092692;28;20481;-56
2021/12/26 06:05:00;;;;;;;1.20;0.60;;;;;;;;;;5093045;28;20077;-56
2021/12/26 06:07:25;;;;;;;2.00;0.85;;;;;;;;;;5092507;28;20032;-56
2021/12/26 06:09:50;;;;;;;0.82;0.47;;;;;;;;;;5072698;28;20057;-56
2021/12/26 06:12:16;;;;;;;1.83;0.50;;;;;;;;;;5072188;28;20033;-56
2021/12/26 06:14:41;;;;;;;1.30;0.70;;;;;;;;;;5072450;28;20044;-56
2021/12/26 06:17:06;;;;;;;2.15;0.90;;;;;;;;;;5073240;28;20017;-56
2021/12/26 06:19:32;;;;;;;1.15;0.70;;;;;;;;;;5072011;28;20045;-55
2021/12/26 06:21:57;;;;;;;1.10;0.77;;;;;;;;;;5072326;28;20033;-53
2021/12/26 06:24:22;;;;;;;1.52;0.93;;;;;;;;;;5072486;28;20029;-53
2021/12/26 06:26:47;;;;;;;0.82;0.60;;;;;;;;;;5072563;28;20098;-53
2021/12/26 06:29:13;;;;;;;1.17;0.80;;;;;;;;;;5073852;28;20082;-56
2021/12/26 06:31:38;;;;;;;0.98;0.70;;;;;;;;;;5092060;28;20131;-54
2021/12/26 06:34:04;;;;;;;1.30;0.88;;;;;;;;;;5092106;28;20040;-53
2021/12/26 06:36:29;;;;;;;1.60;0.90;;;;;;;;;;5091989;28;20039;-57
2021/12/26 06:38:54;;;;;;;2.05;0.63;;;;;;;;;;5092056;28;20025;-55
2021/12/26 06:41:20;;;;;;;2.17;0.70;;;;;;;;;;5091821;28;20028;-56
2021/12/26 06:43:45;;;;;;;0.82;0.65;;;;;;;;;;5094751;28;20054;-55
2021/12/26 06:46:10;;;;;;;1.70;1.00;;;;;;;;;;5096312;28;20032;-56
2021/12/26 06:48:38;;;;;;;1.55;0.80;;;;;;;;;;5096042;28;20381;-54
2021/12/26 06:51:03;;;;;;;1.17;0.85;;;;;;;;;;5095739;28;20591;-55
2021/12/26 06:53:28;;;;;;;1.67;0.80;;;;;;;;;;5095686;28;21629;-56
2021/12/26 06:55:53;;;;;;;0.52;0.43;;;;;;;;;;5096562;28;20028;-55
2021/12/26 06:58:19;;;;;;;0.93;0.80;;;;;;;;;;5095930;28;20024;-55
2021/12/26 07:00:44;;;;;;;0.65;0.52;;;;;;;;;;5098975;28;20031;-53
2021/12/26 07:03:10;;;;;;;0.68;0.55;;;;;;;;;;5102917;28;20496;-55
2021/12/26 07:05:35;;;;;;;1.15;0.65;;;;;;;;;;5080203;28;20060;-55
2021/12/26 07:08:01;;;;;;;1.23;1.05;;;;;;;;;;5080969;28;20024;-56
2021/12/26 07:10:27;;;;;;;1.42;0.82;;;;;;;;;;5095232;28;20036;-55
2021/12/26 07:12:52;;;;;;;0.85;0.60;;;;;;;;;;5095524;28;20077;-53
2021/12/26 07:15:17;;;;;;;1.55;0.88;;;;;;;;;;5095507;28;20028;-54
2021/12/26 07:17:43;;;;;;;2.10;0.80;;;;;;;;;;5095594;28;20024;-54
2021/12/26 07:20:09;;;;;;;1.02;0.70;;;;;;;;;;5095363;28;20047;-55
2021/12/26 07:22:35;;;;;;;2.20;1.20;;;;;;;;;;5095288;28;20028;-56
2021/12/26 07:25:00;;;;;;;1.27;0.90;;;;;;;;;;5095346;28;20028;-54
2021/12/26 07:27:25;;;;;;;1.17;0.77;;;;;;;;;;5095329;28;20032;-54
2021/12/26 07:29:51;;;;;;;0.95;0.70;;;;;;;;;;5095192;28;20046;-56
2021/12/26 07:32:16;;;;;;;1.63;1.05;;;;;;;;;;5094871;28;20027;-55
2021/12/26 07:34:41;;;;;;;1.08;0.60;;;;;;;;;;5095295;28;20012;-55
2021/12/26 07:37:07;;;;;;;1.17;0.80;;;;;;;;;;5095222;28;20488;-56
2021/12/26 07:39:33;;;;;;;0.57;0.52;;;;;;;;;;5095118;28;20419;-56
2021/12/26 07:41:58;;;;;;;1.35;0.90;;;;;;;;;;5095296;28;20103;-54
2021/12/26 07:44:23;;;;;;;2.70;1.25;;;;;;;;;;5094771;28;20097;-56
2021/12/26 07:46:49;;;;;;;0.88;0.55;;;;;;;;;;5095519;28;20019;-54
2021/12/26 07:49:15;;;;;;;1.08;0.80;;;;;;;;;;5094626;28;20500;-55
2021/12/26 07:51:41;;;;;;;1.60;0.70;;;;;;;;;;5094504;28;20074;-55
2021/12/26 07:54:06;;;;;;;0.50;0.38;;;;;;;;;;5094538;28;20072;-53
2021/12/26 07:56:32;;;;;;;1.33;0.80;;;;;;;;;;5094932;28;20103;-54
2021/12/26 07:58:57;;;;;;;0.95;0.57;;;;;;;;;;5110908;28;20028;-52
2021/12/26 08:01:23;;;;;;;0.98;0.75;;;;;;;;;;5097290;28;20114;-55
2021/12/26 08:03:48;;;;;;;1.08;0.60;;;;;;;;;;5098203;28;20158;-54
2021/12/26 08:06:19;;;;;;;1.25;0.70;;;;;;;;;;5094494;28;20177;-54
2021/12/26 08:08:48;;;;;;;0.82;0.60;;;;;;;;;;5094499;28;20449;-54
2021/12/26 08:11:13;;;;;;;1.65;0.70;;;;;;;;;;5094583;28;20042;-54
2021/12/26 08:13:38;;;;;;;1.02;0.60;;;;;;;;;;5094847;28;20012;-53
2021/12/26 08:16:04;;;;;;;1.45;0.80;;;;;;;;;;5094488;28;20111;-54
2021/12/26 08:18:29;;;;;;;1.27;0.70;;;;;;;;;;5094281;28;20116;-54
2021/12/26 08:20:56;;;;;;;0.60;0.50;;;;;;;;;;5093970;28;20068;-55
2021/12/26 08:23:21;;;;;;;0.73;0.63;;;;;;;;;;5094146;28;20056;-54
2021/12/26 08:25:46;;;;;;;2.33;0.70;;;;;;;;;;5094887;28;20020;-54
2021/12/26 08:28:14;;;;;;;0.77;0.50;;;;;;;;;;5094210;28;20455;-54
2021/12/26 08:30:39;;;;;;;1.58;0.73;;;;;;;;;;5093788;28;20039;-54
2021/12/26 08:33:07;;;;;;;0.52;0.38;;;;;;;;;;5093421;28;20020;-54
2021/12/26 08:35:32;;;;;;;0.65;0.40;;;;;;;;;;5093290;28;20040;-54
2021/12/26 08:37:57;;;;;;;1.45;0.50;;;;;;;;;;5096580;28;20039;-54
2021/12/26 08:40:22;;;;;;;0.90;0.57;;;;;;;;;;5093326;28;20036;-55
2021/12/26 08:42:48;;;;;;;1.38;0.70;;;;;;;;;;5101774;28;20107;-54
2021/12/26 08:45:13;;;;;;;0.73;0.55;;;;;;;;;;5102109;28;20024;-55
2021/12/26 08:47:39;;;;;;;0.57;0.50;;;;;;;;;;5103852;28;20032;-55
2021/12/26 08:50:05;;;;;;;1.02;0.50;;;;;;;;;;5104533;28;20028;-54
2021/12/26 08:52:30;;;;;;;3.72;0.60;;;;;;;;;;5101832;28;20612;-55
2021/12/26 08:54:56;;;;;;;0.50;0.43;;;;;;;;;;5103816;28;20122;-55
2021/12/26 08:57:21;;;;;;;1.00;0.73;;;;;;;;;;5101564;28;20396;-54
2021/12/26 08:59:46;;;;;;;1.15;0.50;;;;;;;;;;5102725;28;20040;-54
2021/12/26 09:02:11;;;;;;;0.77;0.60;;;;;;;;;;5101053;28;20487;-54
2021/12/26 09:04:38;;;;;;;1.42;0.80;;;;;;;;;;5101625;28;20046;-55
2021/12/26 09:07:04;;;;;;;1.45;0.57;;;;;;;;;;5102811;28;20032;-55
2021/12/26 09:09:29;;;;;;;0.50;0.40;;;;;;;;;;5101885;28;20177;-53
2021/12/26 09:11:55;;;;;;;1.27;0.63;;;;;;;;;;5103547;28;20126;-54
2021/12/26 09:14:20;;;;;;;0.73;0.40;;;;;;;;;;5102544;28;20028;-54
2021/12/26 09:16:45;;;;;;;2.72;0.52;;;;;;;;;;5102800;28;20045;-55
2021/12/26 09:19:11;;;;;;;2.42;0.68;;;;;;;;;;5103917;28;20131;-53
2021/12/26 09:21:36;;;;;;;1.00;0.40;;;;;;;;;;5101768;28;20036;-54
2021/12/26 09:24:02;;;;;;;0.93;0.57;;;;;;;;;;5102777;28;20134;-53
2021/12/26 09:26:28;;;;;;;1.08;0.60;;;;;;;;;;5085556;28;20035;-54
2021/12/26 09:28:53;;;;;;;0.90;0.70;;;;;;;;;;5102075;28;20114;-53
2021/12/26 09:31:18;;;;;;;0.85;0.52;;;;;;;;;;5103301;28;20546;-52
2021/12/26 09:33:43;;;;;;;0.60;0.40;;;;;;;;;;5101406;28;20063;-54
2021/12/26 09:36:09;;;;;;;0.98;0.65;;;;;;;;;;5102341;28;20028;-54
2021/12/26 09:38:34;;;;;;;1.52;0.63;;;;;;;;;;5101632;28;20496;-53
2021/12/26 09:40:59;;;;;;;1.33;0.68;;;;;;;;;;5103691;28;20514;-55
2021/12/26 09:43:25;;;;;;;1.15;0.50;;;;;;;;;;5100588;28;20116;-54
2021/12/26 09:45:50;;;;;;;1.27;0.70;;;;;;;;;;5109662;28;20403;-55
2021/12/26 09:48:16;;;;;;;0.80;0.35;;;;;;;;;;5113348;28;20036;-53
2021/12/26 09:50:42;;;;;;;1.20;0.73;;;;;;;;;;5094660;28;20082;-53
2021/12/26 09:53:08;;;;;;;0.50;0.50;;;;;;;;;;5104247;28;20011;-56
2021/12/26 09:55:33;;;;;;;0.52;0.50;;;;;;;;;;5103151;28;20503;-55
2021/12/26 09:57:58;;;;;;;0.57;0.50;;;;;;;;;;5101396;28;20061;-55
2021/12/26 10:00:30;;;;;;;0.75;0.50;;;;;;;;;;5102339;28;20063;-56
2021/12/26 10:03:14;;;;;;;1.27;0.70;;;;;;;;;;5097541;28;20082;-55
2021/12/26 10:05:54;;;;;;;0.95;0.52;;;;;;;;;;5092276;28;20040;-56
2021/12/26 10:08:20;;;;;;;1.05;0.80;;;;;;;;;;5092307;28;20027;-54
2021/12/26 10:11:03;;;;;;;1.60;0.50;;;;;;;;;;5092929;28;20044;-55
2021/12/26 10:13:43;;;;;;;1.00;0.60;;;;;;;;;;5091704;28;20451;-56
2021/12/26 10:16:08;;;;;;;;;;;;;;;;;;5092859;28;20039;-55
2021/12/26 10:18:39;;;;;;;3.55;0.70;;;;;;;;;;5090968;28;19920;-55
2021/12/26 10:21:20;;;;;;;0.85;0.47;;;;;;;;;;5092237;28;20111;-55
2021/12/26 10:23:46;;;;;;;0.40;0.40;;;;;;;;;;5091755;28;20024;-54
2021/12/26 10:26:21;;;;;;;1.05;0.63;;;;;;;;;;5092425;28;20020;-54
2021/12/26 10:29:05;;;;;;;2.88;0.70;;;;;;;;;;5097056;28;20042;-49
2021/12/26 10:31:30;;;;;;;0.88;0.55;;;;;;;;;;5100083;28;20047;-52
2021/12/26 10:33:55;;;;;;;1.30;0.80;;;;;;;;;;5093109;28;20455;-52
2021/12/26 10:36:21;;;;;;;1.45;1.02;;;;;;;;;;5098779;28;20028;-49
2021/12/26 10:39:04;;;;;;;5.30;2.85;;;;;;;;;;5096436;28;20024;-52
2021/12/26 10:41:30;;;;;;;4.88;2.28;;;;;;;;;;5108091;28;20479;-53
2021/12/26 10:43:55;;;;;;;5.75;2.70;;;;;;;;;;5102832;28;20013;-53
2021/12/26 10:46:20;;;;;;;6.10;2.85;;;;;;;;;;5102150;28;20073;-52
2021/12/26 10:48:45;;;;;;;5.57;2.80;;;;;;;;;;5097494;28;20032;-54
2021/12/26 10:51:30;;;;;;;8.13;4.07;;;;;;;;;;5091757;28;21031;-54
2021/12/26 10:54:11;;;;;;;7.57;3.40;;;;;;;;;;5103249;28;20042;-53
2021/12/26 10:56:37;;;;;;;9.40;4.20;;;;;;;;;;5111980;28;20567;-54
2021/12/26 10:59:18;;;;;;;7.38;4.32;;;;;;;;;;5094294;28;20040;-55
2021/12/26 11:01:43;;;;;;;8.70;4.57;;;;;;;;;;5111258;28;20399;-55
2021/12/26 11:04:11;;;;;;;7.60;4.05;;;;;;;;;;5091086;28;20032;-53
2021/12/26 11:06:59;;;;;;;8.85;3.92;;;;;;;;;;5091031;28;20098;-53
2021/12/26 11:09:24;;;;;;;6.38;3.38;;;;;;;;;;5091159;28;20527;-55
2021/12/26 11:12:01;;;;;;;7.13;3.50;;;;;;;;;;5090921;28;20044;-55
2021/12/26 11:14:27;;;;;;;6.28;3.63;;;;;;;;;;5090745;28;20073;-54
2021/12/26 11:16:52;;;;;;;18.45;8.57;;;;;;;;;;5091821;28;20112;-55
2021/12/26 11:19:37;;;;;;;29.88;14.10;;;;;;;;;;5090718;28;20135;-54
2021/12/26 11:22:03;;;;;;;41.65;17.92;;;;;;;;;;5094747;28;20032;-59
2021/12/26 11:24:28;;;;;;;41.60;18.98;;;;;;;;;;5100802;28;20495;-58
2021/12/26 11:26:53;;;;;;;41.53;18.17;;;;;;;;;;5104415;28;20062;-58
2021/12/26 11:29:19;;;;;;;41.92;20.25;;;;;;;;;;5095133;28;20415;-58
2021/12/26 11:31:44;;;;;;;44.15;20.35;;;;;;;;;;5099298;28;20039;-57
2021/12/26 11:34:09;;;;;;;43.55;19.25;;;;;;;;;;5097407;28;20028;-59
2021/12/26 11:36:35;;;;;;;45.80;19.52;;;;;;;;;;5098444;28;20032;-57
2021/12/26 11:39:07;;;;;;;37.97;18.20;;;;;;;;;;5098185;28;20052;-56
2021/12/26 11:41:34;;;;;;;39.83;17.58;;;;;;;;;;5099507;28;20035;-58
2021/12/26 11:44:08;;;;;;;36.60;17.27;;;;;;;;;;5100433;28;20032;-58
2021/12/26 11:46:52;;;;;;;44.58;18.27;;;;;;;;;;5099887;28;20112;-57
2021/12/26 11:49:38;;;;;;;39.67;17.70;;;;;;;;;;5099128;28;20035;-59
2021/12/26 11:52:22;;;;;;;35.50;15.77;;;;;;;;;;5099942;28;20434;-59
2021/12/26 11:54:54;;;;;;;30.50;14.77;;;;;;;;;;5100642;28;20055;-59
2021/12/26 11:57:22;;;;;;;38.35;14.73;;;;;;;;;;5098027;28;20035;-59
2021/12/26 11:59:50;;;;;;;33.92;15.23;;;;;;;;;;5100249;28;20035;-59
2021/12/26 12:02:36;;;;;;;27.38;14.02;;;;;;;;;;5098843;28;20027;-58
2021/12/26 12:05:13;;;;;;;32.78;14.18;;;;;;;;;;5098843;28;20024;-56
2021/12/26 12:07:47;;;;;;;30.83;14.18;;;;;;;;;;5096891;28;20496;-58
2021/12/26 12:10:31;;;;;;;22.10;11.75;;;;;;;;;;5113958;27;20039;-57
2021/12/26 12:12:57;;;;;;;30.60;12.07;;;;;;;;;;5099386;28;20038;-59
2021/12/26 12:15:40;;;;;;;26.30;12.35;;;;;;;;;;5100550;28;20036;-58
2021/12/26 12:18:10;;;;;;;28.10;11.05;;;;;;;;;;5097256;28;20032;-59
2021/12/26 12:20:36;;;;;;;19.75;10.80;;;;;;;;;;5098772;28;20044;-59
2021/12/26 12:23:04;;;;;;;27.90;12.50;;;;;;;;;;5100340;28;20464;-57
2021/12/26 12:25:36;;;;;;;19.90;10.68;;;;;;;;;;5096908;28;20135;-58
2021/12/26 12:28:20;;;;;;;28.45;10.98;;;;;;;;;;5094938;28;20616;-58
2021/12/26 12:30:49;;;;;;;23.40;11.20;;;;;;;;;;5111389;27;20173;-58
2021/12/26 12:33:16;;;;;;;22.90;10.10;;;;;;;;;;5095353;28;20073;-58
2021/12/26 12:35:48;;;;;;;21.85;10.02;;;;;;;;;;5096720;28;20058;-59
2021/12/26 12:38:39;;;;;;;20.25;10.32;;;;;;;;;;5093862;28;20525;-58
2021/12/26 12:41:07;;;;;;;22.23;10.35;;;;;;;;;;5084115;28;20074;-57
2021/12/26 12:43:41;;;;;;;24.38;9.80;;;;;;;;;;5101134;28;20058;-59
2021/12/26 12:46:07;;;;;;;15.70;8.40;;;;;;;;;;5104438;28;20032;-57
2021/12/26 12:48:47;;;;;;;21.35;8.85;;;;;;;;;;5096800;28;20503;-58
2021/12/26 12:51:15;;;;;;;23.13;9.55;;;;;;;;;;5096111;28;20028;-59
2021/12/26 12:53:45;;;;;;;16.05;8.20;;;;;;;;;;5097070;28;20035;-58
2021/12/26 12:56:30;;;;;;;21.73;8.35;;;;;;;;;;5114207;28;20034;-58
2021/12/26 12:59:18;;;;;;;34.55;10.98;;;;;;;;;;5074050;28;20468;-58
2021/12/26 13:01:47;;;;;;;32.17;11.20;;;;;;;;;;5084249;28;20543;-59
2021/12/26 13:04:13;;;;;;;26.98;9.75;;;;;;;;;;5093555;28;20398;-59
2021/12/26 13:06:56;;;;;;;33.20;10.65;;;;;;;;;;5092596;28;20123;-59
2021/12/26 13:09:21;;;;;;;26.05;9.23;;;;;;;;;;5080682;28;20032;-58
2021/12/26 13:11:48;;;;;;;29.80;10.88;;;;;;;;;;5073366;28;20548;-58
2021/12/26 13:14:32;;;;;;;22.67;8.60;;;;;;;;;;5073254;28;20528;-58
2021/12/26 13:16:57;;;;;;;26.98;8.57;;;;;;;;;;5073366;28;20090;-58
2021/12/26 13:19:23;;;;;;;21.55;7.75;;;;;;;;;;5077147;28;20424;-59
2021/12/26 13:21:54;;;;;;;20.85;8.15;;;;;;;;;;5083687;28;20036;-58
2021/12/26 13:24:26;;;;;;;19.58;7.97;;;;;;;;;;5072743;28;20029;-60
2021/12/26 13:26:51;;;;;;;25.65;6.95;;;;;;;;;;5078021;28;20040;-59
2021/12/26 13:29:16;;;;;;;19.65;7.05;;;;;;;;;;5094901;28;20020;-56
2021/12/26 13:31:42;;;;;;;18.55;7.40;;;;;;;;;;5095202;28;20051;-59
2021/12/26 13:34:08;;;;;;;15.77;6.38;;;;;;;;;;5092934;28;20042;-58
2021/12/26 13:36:34;;;;;;;16.02;6.22;;;;;;;;;;5092345;28;20032;-55
2021/12/26 13:38:59;;;;;;;18.92;6.68;;;;;;;;;;5095216;28;20051;-50
2021/12/26 13:41:28;;;;;;;12.45;5.97;;;;;;;;;;5104916;28;20116;-53
2021/12/26 13:43:56;;;;;;;13.35;5.05;;;;;;;;;;5104753;28;20106;-52
2021/12/26 13:46:22;;;;;;;21.40;6.07;;;;;;;;;;5104436;28;20028;-53
2021/12/26 13:48:51;;;;;;;13.38;5.75;;;;;;;;;;5102377;28;20399;-51
2021/12/26 13:51:25;;;;;;;18.60;7.05;;;;;;;;;;5099133;28;20056;-52
2021/12/26 13:53:53;;;;;;;14.45;5.82;;;;;;;;;;5098067;28;20032;-51
2021/12/26 13:56:18;;;;;;;12.57;5.85;;;;;;;;;;5097113;28;20047;-51
2021/12/26 13:58:43;;;;;;;13.43;5.53;;;;;;;;;;5092356;28;20023;-52
2021/12/26 14:01:09;;;;;;;10.95;5.07;;;;;;;;;;5091167;28;20107;-51
2021/12/26 14:03:34;;;;;;;9.45;4.63;;;;;;;;;;5091102;28;20396;-51
2021/12/26 14:06:00;;;;;;;12.20;5.18;;;;;;;;;;5091299;28;20039;-48
2021/12/26 14:08:27;;;;;;;17.80;4.97;;;;;;;;;;5091140;28;20034;-53
2021/12/26 14:11:02;;;;;;;10.75;4.45;;;;;;;;;;5091530;28;20032;-51
2021/12/26 14:13:28;;;;;;;12.13;4.82;;;;;;;;;;5089764;28;20028;-51
2021/12/26 14:16:00;;;;;;;10.02;4.18;;;;;;;;;;5072504;28;20077;-51
2021/12/26 14:18:31;;;;;;;12.32;4.07;;;;;;;;;;5090217;28;20410;-48
2021/12/26 14:21:09;;;;;;;9.93;4.50;;;;;;;;;;5090901;28;20105;-48
2021/12/26 14:23:41;;;;;;;12.32;4.72;;;;;;;;;;5099415;28;20458;-51
2021/12/26 14:26:08;;;;;;;10.70;4.60;;;;;;;;;;5103066;28;20077;-51
2021/12/26 14:28:38;;;;;;;14.95;4.25;;;;;;;;;;5103345;28;20063;-50
2021/12/26 14:31:03;;;;;;;10.43;3.50;;;;;;;;;;5098139;28;20036;-49
2021/12/26 14:33:31;;;;;;;10.20;4.03;;;;;;;;;;5095359;28;20024;-49
2021/12/26 14:36:03;;;;;;;8.30;3.85;;;;;;;;;;5097096;28;20524;-50
2021/12/26 14:38:28;;;;;;;12.15;3.63;;;;;;;;;;5096514;28;20089;-50
2021/12/26 14:40:58;;;;;;;10.23;3.53;;;;;;;;;;5099951;28;20024;-48
2021/12/26 14:43:24;;;;;;;7.68;3.70;;;;;;;;;;5098724;28;20089;-47
2021/12/26 14:45:51;;;;;;;7.50;3.80;;;;;;;;;;5099808;28;20023;-48